createdAt,value
2023-02-01T00:01:00.924Z,2.43
2023-02-01T00:04:28.779Z,2.46
2023-02-01T00:07:55.780Z,2.45
2023-02-01T00:11:23.086Z,2.44
2023-02-01T00:14:50.204Z,2.46
2023-02-01T00:18:17.260Z,2.48
2023-02-01T00:21:45.618Z,2.47
2023-02-01T00:25:13.150Z,2.48
2023-02-01T00:28:40.087Z,2.47
2023-02-01T00:32:07.740Z,2.46
2023-02-01T00:35:35.724Z,2.45
2023-02-01T00:39:03.457Z,2.44
2023-02-01T00:42:31.249Z,2.43
2023-02-01T00:45:58.240Z,2.42
2023-02-01T00:49:25.315Z,2.42
2023-02-01T00:52:53.804Z,2.40
2023-02-01T00:56:21.490Z,2.42
2023-02-01T00:59:48.490Z,2.40
2023-02-01T01:03:19.698Z,2.39
2023-02-01T01:06:46.672Z,2.36
2023-02-01T01:10:14.466Z,2.36
2023-02-01T01:13:42.075Z,2.39
2023-02-01T01:17:09.313Z,2.47
2023-02-01T01:20:38.720Z,2.53
2023-02-01T01:24:06.605Z,2.60
2023-02-01T01:27:33.940Z,2.62
2023-02-01T01:31:01.060Z,2.61
2023-02-01T01:34:28.506Z,2.58
2023-02-01T01:37:56.111Z,2.55
2023-02-01T01:41:26.000Z,2.53
2023-02-01T01:45:06.681Z,2.51
2023-02-01T01:48:34.687Z,2.50
2023-02-01T01:52:05.531Z,2.50
2023-02-01T01:55:39.320Z,2.54
2023-02-01T01:59:07.676Z,2.58
2023-02-01T02:02:36.139Z,2.63
2023-02-01T02:06:14.967Z,2.62
2023-02-01T02:09:54.639Z,2.59
2023-02-01T02:13:27.843Z,2.57
2023-02-01T02:17:07.379Z,2.56
2023-02-01T02:21:02.118Z,2.56
2023-02-01T02:25:05.893Z,2.63
2023-02-01T02:29:06.530Z,2.61
2023-02-01T02:32:59.884Z,2.59
2023-02-01T02:36:40.271Z,2.61
2023-02-01T02:40:15.908Z,2.63
2023-02-01T02:44:07.378Z,2.68
2023-02-01T02:47:40.513Z,2.77
2023-02-01T02:51:29.423Z,2.83
2023-02-01T02:54:59.534Z,2.85
2023-02-01T02:58:44.482Z,2.83
2023-02-01T03:02:29.803Z,2.79
2023-02-01T03:05:58.099Z,2.76
2023-02-01T03:09:33.180Z,2.75
2023-02-01T03:13:07.330Z,2.73
2023-02-01T03:16:38.659Z,2.69
2023-02-01T03:20:09.199Z,2.67
2023-02-01T03:23:40.570Z,2.63
2023-02-01T03:27:12.027Z,2.58
2023-02-01T03:30:43.948Z,2.55
2023-02-01T03:34:12.445Z,2.51
2023-02-01T03:37:40.824Z,2.50
2023-02-01T03:41:14.714Z,2.49
2023-02-01T03:44:48.949Z,2.50
2023-02-01T03:48:18.950Z,2.53
2023-02-01T03:51:45.989Z,2.58
2023-02-01T03:55:15.141Z,2.62
2023-02-01T03:58:41.092Z,2.63
2023-02-01T04:02:08.356Z,2.63
2023-02-01T04:05:35.976Z,2.64
2023-02-01T04:09:05.611Z,2.62
2023-02-01T04:12:33.133Z,2.62
2023-02-01T04:16:00.157Z,2.61
2023-02-01T04:19:27.535Z,2.63
2023-02-01T04:22:54.723Z,2.64
2023-02-01T04:26:22.430Z,2.64
2023-02-01T04:29:50.672Z,2.63
2023-02-01T04:33:17.836Z,2.64
2023-02-01T04:36:47.220Z,2.67
2023-02-01T04:40:13.755Z,2.68
2023-02-01T04:43:40.793Z,2.67
2023-02-01T04:47:08.251Z,2.67
2023-02-01T04:50:35.843Z,2.69
2023-02-01T04:54:02.872Z,2.69
2023-02-01T04:57:30.183Z,2.69
2023-02-01T05:00:58.129Z,2.68
2023-02-01T05:04:25.403Z,2.68
2023-02-01T05:07:52.734Z,2.72
2023-02-01T05:11:33.610Z,2.77
2023-02-01T05:15:00.795Z,2.84
2023-02-01T05:18:28.115Z,2.89
2023-02-01T05:21:55.185Z,2.93
2023-02-01T05:25:22.385Z,2.98
2023-02-01T05:28:49.756Z,3.04
2023-02-01T05:32:22.578Z,3.09
2023-02-01T05:35:52.706Z,3.13
2023-02-01T05:39:18.353Z,3.18
2023-02-01T05:42:45.395Z,3.21
2023-02-01T05:46:13.819Z,3.20
2023-02-01T05:49:41.235Z,3.21
2023-02-01T05:53:08.465Z,3.20
2023-02-01T05:56:35.594Z,3.19
2023-02-01T06:00:02.750Z,3.18
2023-02-01T06:03:40.174Z,3.17
2023-02-01T06:07:08.736Z,3.16
2023-02-01T06:10:35.853Z,3.15
2023-02-01T06:14:03.159Z,3.13
2023-02-01T06:17:30.387Z,3.13
2023-02-01T06:21:01.009Z,3.14
2023-02-01T06:24:28.963Z,3.13
2023-02-01T06:27:56.205Z,3.13
2023-02-01T06:31:24.443Z,3.14
2023-02-01T06:34:53.512Z,3.16
2023-02-01T06:38:20.574Z,3.18
2023-02-01T06:41:50.215Z,3.19
2023-02-01T06:45:16.238Z,3.22
2023-02-01T06:48:43.771Z,3.22
2023-02-01T06:52:10.943Z,3.24
2023-02-01T06:55:37.970Z,3.25
2023-02-01T06:59:07.300Z,3.26
2023-02-01T07:02:34.572Z,3.27
2023-02-01T07:06:01.865Z,3.28
2023-02-01T07:09:29.317Z,3.30
2023-02-01T07:13:00.688Z,3.32
2023-02-01T07:16:28.006Z,3.29
2023-02-01T07:19:55.127Z,3.29
2023-02-01T07:23:22.145Z,3.29
2023-02-01T07:26:52.128Z,3.29
2023-02-01T07:30:20.567Z,3.29
2023-02-01T07:33:48.051Z,3.29
2023-02-01T07:37:15.293Z,3.31
2023-02-01T07:40:42.374Z,3.32
2023-02-01T07:44:09.612Z,3.34
2023-02-01T07:47:36.699Z,3.37
2023-02-01T07:51:06.049Z,3.41
2023-02-01T07:54:33.259Z,3.45
2023-02-01T07:58:02.024Z,3.47
2023-02-01T08:01:30.866Z,3.51
2023-02-01T08:04:57.889Z,3.56
2023-02-01T08:08:25.513Z,3.63
2023-02-01T08:11:52.715Z,3.70
2023-02-01T08:15:20.252Z,3.77
2023-02-01T08:18:47.957Z,3.86
2023-02-01T08:22:14.903Z,3.94
2023-02-01T08:25:41.913Z,4.01
2023-02-01T08:29:11.527Z,4.06
2023-02-01T08:32:41.278Z,4.10
2023-02-01T08:36:10.247Z,4.15
2023-02-01T08:39:37.817Z,4.22
2023-02-01T08:43:05.030Z,4.29
2023-02-01T08:46:32.178Z,4.34
2023-02-01T08:49:59.282Z,4.37
2023-02-01T08:53:26.557Z,4.41
2023-02-01T08:56:55.510Z,4.46
2023-02-01T09:00:23.655Z,4.50
2023-02-01T09:03:50.981Z,4.58
2023-02-01T09:07:18.800Z,4.67
2023-02-01T09:10:46.109Z,4.70
2023-02-01T09:14:13.407Z,4.66
2023-02-01T09:17:42.782Z,4.62
2023-02-01T09:21:10.235Z,4.56
2023-02-01T09:24:37.445Z,4.54
2023-02-01T09:28:07.186Z,4.54
2023-02-01T09:31:34.595Z,4.50
2023-02-01T09:35:02.023Z,4.41
2023-02-01T09:38:29.697Z,4.32
2023-02-01T09:42:06.739Z,4.22
2023-02-01T09:45:39.997Z,4.15
2023-02-01T09:49:13.410Z,4.05
2023-02-01T09:52:45.213Z,3.98
2023-02-01T09:56:17.249Z,3.93
2023-02-01T09:59:48.196Z,3.90
2023-02-01T10:03:16.773Z,3.90
2023-02-01T10:07:05.549Z,3.89
2023-02-01T10:10:42.960Z,3.91
2023-02-01T10:14:17.694Z,3.94
2023-02-01T10:17:59.135Z,3.96
2023-02-01T10:21:42.577Z,3.99
2023-02-01T10:25:16.591Z,4.03
2023-02-01T10:28:46.384Z,4.07
2023-02-01T10:32:19.299Z,4.11
2023-02-01T10:35:48.444Z,4.13
2023-02-01T10:39:17.215Z,4.14
2023-02-01T10:42:45.482Z,4.14
2023-02-01T10:46:12.925Z,4.14
2023-02-01T10:49:46.094Z,4.16
2023-02-01T10:53:19.239Z,4.18
2023-02-01T10:56:47.852Z,4.20
2023-02-01T11:00:25.032Z,4.21
2023-02-01T11:03:57.950Z,4.19
2023-02-01T11:07:28.166Z,4.17
2023-02-01T11:11:02.444Z,4.15
2023-02-01T11:14:40.426Z,4.14
2023-02-01T11:18:20.275Z,4.18
2023-02-01T11:21:51.616Z,4.23
2023-02-01T11:25:20.757Z,4.25
2023-02-01T11:28:55.542Z,4.24
2023-02-01T11:32:25.245Z,4.24
2023-02-01T11:35:54.027Z,4.24
2023-02-01T11:39:28.495Z,4.22
2023-02-01T11:43:00.728Z,4.20
2023-02-01T11:46:32.790Z,4.18
2023-02-01T11:50:01.858Z,4.17
2023-02-01T11:53:42.075Z,4.20
2023-02-01T11:57:24.704Z,4.25
2023-02-01T12:01:05.552Z,4.31
2023-02-01T12:04:56.149Z,4.38
2023-02-01T12:08:51.276Z,4.41
2023-02-01T12:12:23.718Z,4.40
2023-02-01T12:16:02.921Z,4.38
2023-02-01T12:19:44.458Z,4.42
2023-02-01T12:23:26.538Z,4.43
2023-02-01T12:27:09.561Z,4.39
2023-02-01T12:31:09.374Z,4.29
2023-02-01T12:34:56.889Z,4.19
2023-02-01T12:38:51.500Z,4.15
2023-02-01T12:42:23.619Z,4.15
2023-02-01T12:45:55.764Z,4.17
2023-02-01T12:49:31.109Z,4.24
2023-02-01T12:53:09.401Z,4.26
2023-02-01T12:56:43.372Z,4.25
2023-02-01T13:00:23.387Z,4.25
2023-02-01T13:04:01.125Z,4.24
2023-02-01T13:07:31.490Z,4.25
2023-02-01T13:11:05.890Z,4.26
2023-02-01T13:14:40.961Z,4.29
2023-02-01T13:18:15.589Z,4.40
2023-02-01T13:21:48.334Z,4.49
2023-02-01T13:25:19.811Z,4.56
2023-02-01T13:28:52.364Z,4.57
2023-02-01T13:33:50.183Z,4.55
2023-02-01T13:36:36.990Z,4.54
2023-02-01T13:40:20.207Z,4.49
2023-02-01T13:43:51.045Z,4.50
2023-02-01T13:47:26.281Z,4.59
2023-02-01T13:50:58.431Z,4.79
2023-02-01T13:54:32.279Z,4.94
2023-02-01T13:58:21.292Z,5.00
2023-02-01T14:01:48.373Z,4.96
2023-02-01T14:05:37.513Z,4.92
2023-02-01T14:09:38.204Z,4.89
2023-02-01T14:13:28.765Z,4.88
2023-02-01T14:17:41.230Z,4.88
2023-02-01T14:21:24.126Z,4.88
2023-02-01T14:24:56.412Z,4.90
2023-02-01T14:28:28.727Z,4.93
2023-02-01T14:32:19.052Z,4.95
2023-02-01T14:35:58.038Z,4.92
2023-02-01T14:39:38.496Z,4.88
2023-02-01T14:43:05.684Z,4.79
2023-02-01T14:47:03.243Z,4.68
2023-02-01T14:50:37.891Z,4.55
2023-02-01T14:54:05.765Z,4.45
2023-02-01T14:57:35.608Z,4.35
2023-02-01T15:01:07.677Z,4.26
2023-02-01T15:04:45.045Z,4.18
2023-02-01T15:08:30.723Z,4.10
2023-02-01T15:12:07.529Z,4.04
2023-02-01T15:15:37.476Z,4.03
2023-02-01T15:19:16.399Z,4.03
2023-02-01T15:22:44.115Z,4.03
2023-02-01T15:26:11.016Z,4.04
2023-02-01T15:29:38.191Z,4.03
2023-02-01T15:33:18.322Z,4.04
2023-02-01T15:37:00.695Z,4.03
2023-02-01T15:40:31.922Z,4.04
2023-02-01T15:44:16.080Z,4.03
2023-02-01T15:47:47.222Z,4.01
2023-02-01T15:51:20.714Z,3.97
2023-02-01T15:54:53.595Z,3.88
2023-02-01T15:58:23.260Z,3.75
2023-02-01T16:01:51.306Z,3.62
2023-02-01T16:05:34.567Z,3.48
2023-02-01T16:09:14.021Z,3.34
2023-02-01T16:12:50.648Z,3.21
2023-02-01T16:16:18.338Z,3.11
2023-02-01T16:19:45.726Z,3.02
2023-02-01T16:23:13.697Z,2.92
2023-02-01T16:26:40.724Z,2.84
2023-02-01T16:30:10.941Z,2.76
2023-02-01T16:33:38.080Z,2.69
2023-02-01T16:37:06.562Z,2.64
2023-02-01T16:40:33.583Z,2.59
2023-02-01T16:44:00.624Z,2.57
2023-02-01T16:47:27.812Z,2.57
2023-02-01T16:50:57.592Z,2.62
2023-02-01T16:54:23.215Z,2.66
2023-02-01T16:57:50.572Z,2.67
2023-02-01T17:01:20.515Z,2.68
2023-02-01T17:04:49.847Z,2.72
2023-02-01T17:08:20.629Z,2.77
2023-02-01T17:11:47.684Z,2.82
2023-02-01T17:15:15.915Z,2.87
2023-02-01T17:18:43.231Z,2.93
2023-02-01T17:22:11.781Z,2.97
2023-02-01T17:25:39.191Z,2.99
2023-02-01T17:29:06.478Z,3.00
2023-02-01T17:32:33.547Z,3.00
2023-02-01T17:36:01.459Z,3.00
2023-02-01T17:39:46.715Z,3.00
2023-02-01T17:43:22.956Z,2.99
2023-02-01T17:46:50.195Z,2.98
2023-02-01T17:50:18.344Z,2.98
2023-02-01T17:53:46.675Z,2.98
2023-02-01T17:57:15.985Z,2.99
2023-02-01T18:00:44.107Z,3.01
2023-02-01T18:04:15.118Z,3.04
2023-02-01T18:07:42.186Z,3.04
2023-02-01T18:11:15.436Z,3.04
2023-02-01T18:14:42.529Z,3.05
2023-02-01T18:18:09.976Z,3.02
2023-02-01T18:21:43.681Z,2.97
2023-02-01T18:25:20.709Z,2.93
2023-02-01T18:28:48.391Z,2.88
2023-02-01T18:32:15.878Z,2.87
2023-02-01T18:35:44.533Z,2.86
2023-02-01T18:39:12.361Z,2.85
2023-02-01T18:42:40.312Z,2.83
2023-02-01T18:46:08.384Z,2.82
2023-02-01T18:49:36.883Z,2.81
2023-02-01T18:53:06.771Z,2.80
2023-02-01T18:56:33.886Z,2.80
2023-02-01T19:00:00.913Z,2.82
2023-02-01T19:03:28.825Z,2.86
2023-02-01T19:06:56.250Z,2.90
2023-02-01T19:10:25.631Z,2.95
2023-02-01T19:13:55.436Z,2.95
2023-02-01T19:17:23.418Z,2.92
2023-02-01T19:20:54.641Z,2.88
2023-02-01T19:24:23.641Z,2.86
2023-02-01T19:27:53.235Z,2.85
2023-02-01T19:31:20.716Z,2.83
2023-02-01T19:34:48.900Z,2.82
2023-02-01T19:38:16.933Z,2.81
2023-02-01T19:41:44.506Z,2.80
2023-02-01T19:45:13.034Z,2.80
2023-02-01T19:48:40.572Z,2.80
2023-02-01T19:52:08.393Z,2.81
2023-02-01T19:55:36.392Z,2.80
2023-02-01T19:59:05.072Z,2.81
2023-02-01T20:02:32.138Z,2.80
2023-02-01T20:06:03.086Z,2.80
2023-02-01T20:09:34.207Z,2.79
2023-02-01T20:13:02.238Z,2.78
2023-02-01T20:16:30.873Z,2.79
2023-02-01T20:20:03.701Z,2.79
2023-02-01T20:23:33.198Z,2.80
2023-02-01T20:27:02.746Z,2.80
2023-02-01T20:30:32.397Z,2.80
2023-02-01T20:34:02.154Z,2.81
2023-02-01T20:37:31.870Z,2.82
2023-02-01T20:41:07.965Z,2.83
2023-02-01T20:44:37.116Z,2.86
2023-02-01T20:48:07.115Z,2.88
2023-02-01T20:51:36.626Z,2.89
2023-02-01T20:55:05.253Z,2.90
2023-02-01T20:58:34.135Z,2.91
2023-02-01T21:02:02.639Z,2.91
2023-02-01T21:05:40.095Z,2.92
2023-02-01T21:09:07.615Z,2.94
2023-02-01T21:12:34.936Z,2.95
2023-02-01T21:16:03.336Z,2.97
2023-02-01T21:19:43.130Z,2.99
2023-02-01T21:23:11.088Z,3.00
2023-02-01T21:26:42.105Z,3.01
2023-02-01T21:30:11.804Z,3.02
2023-02-01T21:33:39.294Z,3.02
2023-02-01T21:37:07.132Z,3.03
2023-02-01T21:40:35.008Z,3.03
2023-02-01T21:44:02.524Z,3.03
2023-02-01T21:47:29.964Z,3.03
2023-02-01T21:50:58.319Z,3.04
2023-02-01T21:54:26.057Z,3.04
2023-02-01T21:57:53.247Z,3.04
2023-02-01T22:01:20.508Z,3.05
2023-02-01T22:04:49.077Z,3.06
2023-02-01T22:08:16.257Z,3.08
2023-02-01T22:11:43.234Z,3.09
2023-02-01T22:15:11.836Z,3.09
2023-02-01T22:18:38.811Z,3.09
2023-02-01T22:22:05.833Z,3.11
2023-02-01T22:25:33.921Z,3.13
2023-02-01T22:29:00.875Z,3.13
2023-02-01T22:32:28.526Z,3.14
2023-02-01T22:35:56.095Z,3.15
2023-02-01T22:39:24.500Z,3.15
2023-02-01T22:42:51.652Z,3.16
2023-02-01T22:46:31.394Z,3.17
2023-02-01T22:50:09.712Z,3.18
2023-02-01T22:53:36.872Z,3.18
2023-02-01T22:57:04.225Z,3.17
2023-02-01T23:00:40.262Z,3.18
2023-02-01T23:04:11.266Z,3.19
2023-02-01T23:07:40.945Z,3.20
2023-02-01T23:11:10.832Z,3.22
2023-02-01T23:14:58.573Z,3.24
2023-02-01T23:18:26.110Z,3.27
2023-02-01T23:21:53.430Z,3.28
2023-02-01T23:25:21.960Z,3.30
2023-02-01T23:28:50.827Z,3.32
2023-02-01T23:32:18.580Z,3.36
2023-02-01T23:35:55.004Z,3.39
2023-02-01T23:39:22.212Z,3.40
2023-02-01T23:43:09.722Z,3.41
2023-02-01T23:46:40.308Z,3.42
2023-02-01T23:50:08.719Z,3.44
2023-02-01T23:53:35.903Z,3.45
2023-02-01T23:57:02.995Z,3.46
